createdAt,value
2023-06-25T00:00:58.771Z,6.40
2023-06-25T00:03:26.679Z,5.80
2023-06-25T00:05:54.602Z,6.45
2023-06-25T00:08:22.481Z,6.47
2023-06-25T00:10:51.223Z,5.97
2023-06-25T00:13:20.494Z,6.28
2023-06-25T00:15:48.407Z,6.07
2023-06-25T00:18:16.437Z,5.95
2023-06-25T00:20:44.491Z,5.85
2023-06-25T00:23:12.463Z,5.60
2023-06-25T00:25:40.496Z,6.03
2023-06-25T00:28:10.294Z,5.68
2023-06-25T00:30:40.355Z,6.20
2023-06-25T00:33:08.683Z,5.63
2023-06-25T00:36:00.822Z,5.80
2023-06-25T00:38:30.510Z,5.50
2023-06-25T00:40:58.490Z,6.00
2023-06-25T00:43:26.492Z,5.70
2023-06-25T00:45:55.790Z,5.88
2023-06-25T00:48:24.022Z,5.25
2023-06-25T00:50:52.351Z,6.07
2023-06-25T00:53:20.295Z,5.82
2023-06-25T00:55:52.102Z,6.00
2023-06-25T00:58:23.469Z,5.75
2023-06-25T01:00:51.386Z,5.53
2023-06-25T01:03:27.602Z,5.70
2023-06-25T01:06:11.756Z,5.53
2023-06-25T01:08:41.496Z,5.60
2023-06-25T01:11:11.544Z,5.82
2023-06-25T01:13:40.069Z,5.50
2023-06-25T01:16:08.121Z,5.60
2023-06-25T01:18:45.217Z,5.88
2023-06-25T01:21:20.213Z,5.72
2023-06-25T01:23:49.414Z,5.63
2023-06-25T01:26:17.479Z,5.55
2023-06-25T01:28:45.508Z,6.38
2023-06-25T01:31:13.371Z,6.20
2023-06-25T01:33:41.335Z,5.70
2023-06-25T01:36:09.413Z,6.05
2023-06-25T01:38:37.396Z,5.80
2023-06-25T01:41:06.743Z,5.30
2023-06-25T01:43:34.732Z,5.85
2023-06-25T01:46:02.728Z,5.90
2023-06-25T01:48:32.212Z,5.95
2023-06-25T01:51:00.164Z,5.43
2023-06-25T01:53:28.181Z,5.50
2023-06-25T01:55:56.115Z,6.10
2023-06-25T01:58:25.805Z,6.00
2023-06-25T02:00:53.758Z,5.80
2023-06-25T02:03:21.846Z,5.57
2023-06-25T02:05:49.795Z,5.68
2023-06-25T02:08:17.790Z,5.65
2023-06-25T02:10:45.724Z,5.95
2023-06-25T02:13:16.090Z,5.90
2023-06-25T02:15:45.660Z,5.72
2023-06-25T02:18:16.934Z,5.65
2023-06-25T02:20:44.865Z,5.97
2023-06-25T02:23:12.789Z,5.10
2023-06-25T02:25:40.785Z,5.97
2023-06-25T02:28:08.793Z,5.38
2023-06-25T02:30:36.813Z,6.15
2023-06-25T02:33:06.356Z,5.90
2023-06-25T02:35:34.705Z,6.03
2023-06-25T02:38:02.798Z,6.40
2023-06-25T02:40:30.805Z,5.72
2023-06-25T02:42:58.812Z,6.25
2023-06-25T02:45:26.801Z,6.22
2023-06-25T02:47:54.913Z,6.40
2023-06-25T02:50:24.309Z,6.10
2023-06-25T02:52:52.393Z,6.00
2023-06-25T02:55:21.519Z,6.75
2023-06-25T02:57:49.424Z,6.80
2023-06-25T03:00:17.802Z,5.90
2023-06-25T03:02:45.852Z,6.47
2023-06-25T03:05:14.078Z,6.47
2023-06-25T03:07:51.425Z,6.78
2023-06-25T03:10:20.386Z,6.43
2023-06-25T03:12:48.438Z,6.03
2023-06-25T03:15:16.539Z,6.07
2023-06-25T03:17:44.595Z,6.88
2023-06-25T03:20:13.393Z,6.93
2023-06-25T03:22:42.112Z,6.22
2023-06-25T03:25:12.059Z,6.25
2023-06-25T03:27:43.736Z,6.90
2023-06-25T03:30:11.997Z,6.78
2023-06-25T03:32:40.075Z,6.70
2023-06-25T03:35:08.426Z,7.25
2023-06-25T03:37:37.437Z,6.78
2023-06-25T03:40:06.383Z,6.43
2023-06-25T03:42:35.863Z,6.35
2023-06-25T03:45:04.237Z,6.90
2023-06-25T03:47:32.390Z,6.32
2023-06-25T03:50:00.502Z,6.63
2023-06-25T03:52:28.538Z,6.35
2023-06-25T03:54:56.539Z,6.70
2023-06-25T03:57:24.507Z,6.22
2023-06-25T03:59:53.769Z,6.40
2023-06-25T04:02:22.477Z,6.75
2023-06-25T04:04:50.483Z,6.80
2023-06-25T04:07:18.747Z,6.28
2023-06-25T04:09:46.808Z,6.85
2023-06-25T04:12:14.850Z,6.50
2023-06-25T04:14:42.791Z,6.20
2023-06-25T04:17:12.098Z,6.57
2023-06-25T04:19:40.448Z,6.35
2023-06-25T04:22:09.844Z,6.70
2023-06-25T04:24:38.067Z,5.95
2023-06-25T04:27:07.619Z,7.07
2023-06-25T04:29:37.383Z,6.40
2023-06-25T04:32:05.749Z,6.35
2023-06-25T04:34:37.545Z,6.40
2023-06-25T04:37:05.761Z,6.63
2023-06-25T04:39:33.767Z,6.45
2023-06-25T04:42:03.088Z,6.65
2023-06-25T04:44:31.083Z,6.60
2023-06-25T04:46:59.027Z,6.43
2023-06-25T04:49:27.041Z,7.03
2023-06-25T04:51:56.776Z,6.78
2023-06-25T04:54:24.730Z,6.82
2023-06-25T04:56:52.694Z,6.45
2023-06-25T04:59:20.699Z,6.30
2023-06-25T05:01:48.798Z,6.78
2023-06-25T05:04:16.960Z,6.75
2023-06-25T05:06:44.876Z,6.63
2023-06-25T05:09:14.524Z,7.15
2023-06-25T05:11:42.432Z,6.97
2023-06-25T05:14:10.507Z,6.78
2023-06-25T05:16:38.512Z,6.80
2023-06-25T05:19:06.458Z,6.90
2023-06-25T05:21:34.472Z,8.60
2023-06-25T05:24:03.089Z,9.15
2023-06-25T05:26:32.407Z,9.18
2023-06-25T05:29:00.497Z,9.65
2023-06-25T05:31:28.495Z,9.07
2023-06-25T05:33:56.401Z,9.38
2023-06-25T05:36:24.524Z,10.48
2023-06-25T05:38:52.484Z,9.43
2023-06-25T05:41:20.444Z,9.73
2023-06-25T05:43:49.782Z,9.68
2023-06-25T05:46:18.152Z,9.73
2023-06-25T05:48:46.135Z,10.13
2023-06-25T05:51:14.112Z,10.05
2023-06-25T05:53:42.272Z,10.77
2023-06-25T05:56:10.147Z,9.80
2023-06-25T05:58:38.202Z,9.32
2023-06-25T06:01:07.637Z,9.15
2023-06-25T06:03:35.773Z,9.65
2023-06-25T06:06:03.698Z,8.88
2023-06-25T06:08:31.623Z,9.15
2023-06-25T06:10:59.648Z,9.18
2023-06-25T06:13:27.595Z,8.52
2023-06-25T06:15:55.618Z,8.85
2023-06-25T06:18:24.949Z,9.02
2023-06-25T06:20:52.926Z,8.63
2023-06-25T06:23:20.929Z,8.32
2023-06-25T06:25:48.863Z,8.38
2023-06-25T06:28:16.855Z,8.55
2023-06-25T06:30:44.837Z,7.88
2023-06-25T06:33:12.803Z,8.00
2023-06-25T06:35:42.095Z,8.07
2023-06-25T06:38:10.002Z,8.32
2023-06-25T06:40:37.838Z,8.32
2023-06-25T06:43:05.771Z,8.02
2023-06-25T06:45:33.709Z,7.70
2023-06-25T06:48:01.787Z,7.43
2023-06-25T06:50:29.871Z,6.82
2023-06-25T06:52:59.160Z,8.00
2023-06-25T06:55:27.121Z,7.93
2023-06-25T06:57:55.167Z,8.05
2023-06-25T07:00:23.185Z,7.43
2023-06-25T07:02:52.079Z,7.90
2023-06-25T07:05:20.270Z,7.05
2023-06-25T07:07:48.336Z,7.03
2023-06-25T07:10:17.697Z,7.28
2023-06-25T07:12:45.607Z,7.57
2023-06-25T07:15:13.541Z,8.13
2023-06-25T07:17:41.616Z,7.75
2023-06-25T07:20:10.197Z,8.15
2023-06-25T07:22:39.232Z,7.10
2023-06-25T07:25:07.754Z,7.90
2023-06-25T07:27:37.147Z,6.88
2023-06-25T07:30:05.884Z,7.30
2023-06-25T07:32:33.901Z,7.28
2023-06-25T07:35:01.884Z,7.18
2023-06-25T07:37:29.799Z,7.35
2023-06-25T07:39:57.791Z,7.03
2023-06-25T07:42:25.668Z,7.68
2023-06-25T07:44:57.367Z,7.47
2023-06-25T07:47:25.687Z,8.13
2023-06-25T07:49:53.732Z,7.25
2023-06-25T07:52:21.726Z,7.53
2023-06-25T07:54:49.782Z,7.60
2023-06-25T07:57:17.793Z,7.60
2023-06-25T07:59:51.822Z,7.82
2023-06-25T08:02:23.183Z,7.38
2023-06-25T08:04:51.558Z,7.78
2023-06-25T08:07:19.719Z,7.78
2023-06-25T08:09:50.008Z,7.55
2023-06-25T08:12:20.747Z,7.30
2023-06-25T08:14:48.773Z,7.78
2023-06-25T08:17:16.868Z,8.32
2023-06-25T08:19:46.061Z,7.65
2023-06-25T08:22:14.020Z,7.93
2023-06-25T08:24:41.986Z,7.95
2023-06-25T08:27:09.946Z,8.02
2023-06-25T08:29:37.934Z,7.20
2023-06-25T08:32:06.265Z,7.47
2023-06-25T08:34:34.410Z,6.57
2023-06-25T08:37:03.794Z,6.90
2023-06-25T08:39:31.753Z,6.88
2023-06-25T08:42:00.464Z,7.35
2023-06-25T08:44:28.450Z,6.80
2023-06-25T08:46:56.495Z,6.20
2023-06-25T08:49:24.673Z,6.50
2023-06-25T08:51:53.842Z,6.45
2023-06-25T08:54:23.176Z,6.43
2023-06-25T08:56:51.123Z,6.00
2023-06-25T08:59:19.284Z,6.30
2023-06-25T09:01:47.335Z,6.80
2023-06-25T09:04:15.378Z,6.65
2023-06-25T09:07:02.433Z,6.47
2023-06-25T09:09:32.576Z,6.35
2023-06-25T09:12:00.532Z,6.07
2023-06-25T09:14:28.434Z,6.43
2023-06-25T09:16:57.771Z,6.38
2023-06-25T09:19:25.841Z,6.07
2023-06-25T09:21:53.887Z,6.10
2023-06-25T09:24:22.241Z,6.15
2023-06-25T09:26:51.649Z,5.68
2023-06-25T09:29:19.840Z,6.05
2023-06-25T09:31:47.954Z,6.05
2023-06-25T09:34:16.263Z,6.25
2023-06-25T09:36:44.235Z,6.22
2023-06-25T09:39:12.584Z,6.65
2023-06-25T09:41:41.970Z,6.78
2023-06-25T09:44:11.390Z,5.90
2023-06-25T09:46:39.751Z,6.50
2023-06-25T09:49:08.419Z,6.57
2023-06-25T09:51:39.295Z,6.22
2023-06-25T09:54:07.387Z,5.97
2023-06-25T09:56:35.513Z,5.85
2023-06-25T09:59:03.632Z,6.32
2023-06-25T10:01:33.096Z,6.38
2023-06-25T10:04:01.286Z,6.80
2023-06-25T10:06:29.353Z,6.32
2023-06-25T10:08:57.363Z,6.32
2023-06-25T10:11:26.119Z,6.45
2023-06-25T10:13:54.112Z,6.20
2023-06-25T10:16:33.984Z,6.35
2023-06-25T10:19:08.096Z,6.35
2023-06-25T10:21:36.115Z,6.10
2023-06-25T10:24:04.850Z,6.50
2023-06-25T10:26:34.950Z,6.40
2023-06-25T10:29:03.162Z,6.63
2023-06-25T10:31:37.734Z,6.70
2023-06-25T10:34:07.700Z,9.90
2023-06-25T10:36:35.661Z,6.35
2023-06-25T10:39:03.741Z,6.40
2023-06-25T10:41:31.920Z,6.03
2023-06-25T10:43:59.950Z,6.05
2023-06-25T10:46:33.343Z,6.25
2023-06-25T10:49:04.076Z,6.47
2023-06-25T10:51:34.716Z,6.68
2023-06-25T10:54:03.807Z,7.18
2023-06-25T10:56:31.685Z,6.93
2023-06-25T10:58:59.859Z,6.68
2023-06-25T11:01:28.283Z,6.80
2023-06-25T11:03:56.492Z,6.38
2023-06-25T11:06:24.519Z,6.03
2023-06-25T11:08:53.972Z,6.45
2023-06-25T11:11:23.740Z,6.45
2023-06-25T11:13:51.672Z,6.35
2023-06-25T11:16:21.045Z,6.68
2023-06-25T11:18:51.894Z,6.28
2023-06-25T11:21:19.950Z,6.13
2023-06-25T11:23:47.880Z,6.63
2023-06-25T11:26:18.486Z,6.72
2023-06-25T11:28:49.575Z,6.60
2023-06-25T11:31:17.641Z,6.78
2023-06-25T11:33:55.020Z,6.80
2023-06-25T11:36:24.718Z,6.60
2023-06-25T11:38:52.669Z,6.75
2023-06-25T11:41:28.894Z,6.53
2023-06-25T11:43:56.833Z,6.85
2023-06-25T11:46:24.849Z,6.63
2023-06-25T11:48:52.739Z,6.00
2023-06-25T11:51:20.654Z,6.78
2023-06-25T11:53:48.511Z,6.88
2023-06-25T11:56:16.369Z,6.38
2023-06-25T11:58:45.580Z,6.22
2023-06-25T12:01:13.476Z,6.32
2023-06-25T12:03:41.532Z,6.03
2023-06-25T12:06:09.644Z,6.57
2023-06-25T12:08:37.677Z,6.20
2023-06-25T12:11:05.632Z,6.10
2023-06-25T12:13:33.498Z,6.15
2023-06-25T12:16:02.754Z,5.75
2023-06-25T12:18:30.741Z,6.32
2023-06-25T12:20:58.705Z,5.95
2023-06-25T12:23:26.739Z,5.90
2023-06-25T12:25:54.878Z,6.35
2023-06-25T12:28:22.815Z,6.68
2023-06-25T12:30:50.752Z,7.95
2023-06-25T12:33:20.117Z,11.15
2023-06-25T12:35:48.069Z,9.95
2023-06-25T12:38:16.018Z,7.15
2023-06-25T12:40:44.213Z,6.28
2023-06-25T12:43:12.175Z,6.35
2023-06-25T12:45:40.293Z,6.10
2023-06-25T12:48:08.208Z,5.90
2023-06-25T12:50:37.529Z,5.80
2023-06-25T12:53:05.477Z,5.88
2023-06-25T12:55:33.356Z,5.28
2023-06-25T12:58:01.249Z,5.80
2023-06-25T13:00:40.987Z,5.80
2023-06-25T13:03:14.994Z,5.38
2023-06-25T13:05:44.344Z,5.38
2023-06-25T13:08:12.747Z,5.22
2023-06-25T13:10:40.659Z,5.15
2023-06-25T13:13:08.640Z,5.50
2023-06-25T13:15:36.867Z,4.85
2023-06-25T13:18:05.155Z,5.07
2023-06-25T13:20:33.126Z,5.03
2023-06-25T13:23:02.460Z,5.03
2023-06-25T13:25:31.469Z,5.13
2023-06-25T13:27:59.410Z,4.70
2023-06-25T13:30:27.344Z,4.95
2023-06-25T13:32:55.768Z,4.80
2023-06-25T13:35:23.706Z,5.18
2023-06-25T13:37:51.690Z,5.20
2023-06-25T13:40:21.028Z,4.50
2023-06-25T13:42:48.997Z,4.60
2023-06-25T13:45:17.636Z,5.05
2023-06-25T13:47:46.275Z,4.80
2023-06-25T13:50:14.285Z,4.75
2023-06-25T13:52:42.282Z,4.70
2023-06-25T13:55:10.240Z,4.97
2023-06-25T13:57:39.604Z,4.93
2023-06-25T14:00:08.213Z,4.97
2023-06-25T14:02:40.682Z,4.40
2023-06-25T14:05:09.118Z,4.80
2023-06-25T14:07:37.054Z,5.07
2023-06-25T14:10:05.075Z,5.32
2023-06-25T14:12:33.000Z,5.03
2023-06-25T14:15:02.275Z,4.40
2023-06-25T14:17:30.517Z,4.65
2023-06-25T14:19:58.438Z,4.55
2023-06-25T14:22:26.356Z,5.40
2023-06-25T14:24:54.305Z,5.10
2023-06-25T14:27:22.181Z,4.90
2023-06-25T14:29:50.054Z,5.53
2023-06-25T14:32:19.353Z,5.90
2023-06-25T14:34:47.358Z,5.90
2023-06-25T14:37:15.267Z,6.10
2023-06-25T14:39:43.208Z,6.72
2023-06-25T14:42:11.119Z,6.90
2023-06-25T14:44:39.038Z,6.85
2023-06-25T14:47:07.217Z,7.03
2023-06-25T14:49:36.850Z,6.90
2023-06-25T14:52:05.042Z,6.55
2023-06-25T14:54:32.990Z,6.88
2023-06-25T14:57:00.969Z,6.68
2023-06-25T14:59:28.868Z,6.68
2023-06-25T15:01:57.072Z,6.30
2023-06-25T15:04:25.273Z,6.97
2023-06-25T15:06:54.705Z,6.05
2023-06-25T15:09:22.702Z,6.15
2023-06-25T15:11:50.596Z,6.38
2023-06-25T15:14:18.528Z,6.43
2023-06-25T15:16:46.685Z,5.65
2023-06-25T15:19:14.650Z,5.80
2023-06-25T15:21:42.593Z,6.07
2023-06-25T15:24:11.894Z,6.30
2023-06-25T15:26:39.778Z,6.10
2023-06-25T15:29:07.744Z,5.97
2023-06-25T15:31:35.729Z,5.70
2023-06-25T15:34:03.626Z,6.20
2023-06-25T15:36:31.621Z,6.00
2023-06-25T15:38:59.824Z,5.78
2023-06-25T15:41:36.873Z,5.60
2023-06-25T15:44:04.808Z,5.30
2023-06-25T15:46:32.761Z,5.50
2023-06-25T15:49:01.419Z,5.70
2023-06-25T15:51:29.371Z,5.80
2023-06-25T15:53:57.326Z,6.38
2023-06-25T15:56:25.220Z,6.30
2023-06-25T15:58:54.507Z,6.07
2023-06-25T16:01:22.553Z,6.03
2023-06-25T16:03:50.522Z,5.85
2023-06-25T16:06:18.629Z,5.70
2023-06-25T16:08:46.538Z,5.72
2023-06-25T16:11:15.191Z,5.80
2023-06-25T16:13:43.171Z,5.57
2023-06-25T16:16:12.532Z,5.75
2023-06-25T16:18:40.449Z,5.38
2023-06-25T16:21:09.008Z,5.85
2023-06-25T16:23:37.168Z,5.47
2023-06-25T16:26:05.086Z,5.72
2023-06-25T16:28:33.063Z,5.65
2023-06-25T16:31:01.081Z,5.53
2023-06-25T16:33:30.322Z,5.50
2023-06-25T16:35:58.287Z,5.18
2023-06-25T16:38:26.279Z,5.47
2023-06-25T16:40:55.762Z,5.35
2023-06-25T16:43:23.731Z,5.50
2023-06-25T16:45:51.676Z,5.10
2023-06-25T16:48:19.623Z,6.63
2023-06-25T16:50:48.910Z,7.28
2023-06-25T16:53:16.835Z,7.60
2023-06-25T16:55:44.783Z,7.68
2023-06-25T16:58:12.636Z,7.43
2023-06-25T17:00:40.579Z,7.28
2023-06-25T17:03:08.655Z,6.93
2023-06-25T17:05:37.147Z,7.60
2023-06-25T17:08:06.799Z,7.60
2023-06-25T17:10:35.253Z,7.35
2023-06-25T17:13:05.157Z,7.70
2023-06-25T17:15:33.210Z,6.70
2023-06-25T17:18:01.336Z,7.13
2023-06-25T17:20:29.335Z,7.05
2023-06-25T17:22:57.220Z,7.28
2023-06-25T17:25:26.574Z,7.07
2023-06-25T17:27:54.523Z,6.65
2023-06-25T17:30:22.502Z,7.03
2023-06-25T17:32:51.609Z,6.60
2023-06-25T17:35:19.567Z,6.93
2023-06-25T17:37:47.517Z,7.07
2023-06-25T17:40:16.196Z,6.60
2023-06-25T17:42:45.570Z,6.45
2023-06-25T17:45:13.536Z,7.20
2023-06-25T17:47:43.921Z,7.65
2023-06-25T17:50:12.169Z,6.32
2023-06-25T17:52:40.101Z,6.40
2023-06-25T17:55:08.498Z,6.20
2023-06-25T17:57:36.487Z,6.45
2023-06-25T18:00:05.864Z,6.88
2023-06-25T18:02:42.702Z,6.40
2023-06-25T18:05:10.967Z,7.15
2023-06-25T18:07:38.905Z,6.35
2023-06-25T18:10:07.005Z,6.35
2023-06-25T18:12:39.372Z,6.20
2023-06-25T18:15:09.554Z,6.53
2023-06-25T18:17:40.611Z,6.45
2023-06-25T18:20:10.947Z,5.93
2023-06-25T18:22:39.208Z,6.05
2023-06-25T18:25:07.558Z,6.18
2023-06-25T18:27:35.524Z,6.18
2023-06-25T18:30:03.451Z,5.70
2023-06-25T18:32:32.833Z,6.10
2023-06-25T18:35:00.935Z,6.15
2023-06-25T18:37:28.953Z,6.03
2023-06-25T18:39:57.185Z,5.72
2023-06-25T18:42:25.163Z,5.82
2023-06-25T18:44:53.148Z,6.07
2023-06-25T18:47:22.536Z,6.18
2023-06-25T18:49:51.983Z,6.05
2023-06-25T18:52:19.936Z,6.30
2023-06-25T18:54:48.158Z,6.00
2023-06-25T18:57:16.506Z,6.45
2023-06-25T18:59:44.464Z,6.40
2023-06-25T19:02:12.392Z,6.07
2023-06-25T19:04:40.438Z,6.10
2023-06-25T19:07:09.874Z,6.13
2023-06-25T19:09:37.760Z,5.93
2023-06-25T19:12:05.953Z,6.07
2023-06-25T19:14:33.908Z,5.63
2023-06-25T19:17:01.871Z,6.30
2023-06-25T19:19:31.669Z,5.90
2023-06-25T19:21:59.592Z,6.07
2023-06-25T19:24:28.862Z,6.57
2023-06-25T19:26:56.834Z,6.28
2023-06-25T19:29:24.741Z,6.18
2023-06-25T19:31:53.165Z,6.18
2023-06-25T19:34:21.378Z,6.50
2023-06-25T19:36:50.780Z,6.15
2023-06-25T19:39:18.761Z,5.97
2023-06-25T19:41:48.142Z,5.57
2023-06-25T19:44:16.133Z,5.68
2023-06-25T19:46:44.151Z,6.22
2023-06-25T19:49:12.124Z,6.30
2023-06-25T19:51:40.205Z,5.78
2023-06-25T19:54:08.180Z,5.70
2023-06-25T19:56:36.145Z,6.05
2023-06-25T19:59:05.498Z,5.68
2023-06-25T20:01:35.812Z,5.85
2023-06-25T20:04:05.177Z,6.20
2023-06-25T20:06:33.130Z,5.75
2023-06-25T20:09:01.015Z,6.10
2023-06-25T20:11:28.995Z,5.65
2023-06-25T20:13:56.956Z,5.70
2023-06-25T20:16:26.290Z,8.10
2023-06-25T20:18:54.205Z,5.45
2023-06-25T20:21:22.128Z,5.78
2023-06-25T20:23:50.058Z,6.03
2023-06-25T20:26:17.964Z,5.65
2023-06-25T20:28:45.912Z,5.97
2023-06-25T20:31:13.920Z,5.80
2023-06-25T20:33:43.385Z,6.20
2023-06-25T20:36:11.370Z,5.80
2023-06-25T20:38:39.307Z,5.40
2023-06-25T20:41:23.183Z,6.25
2023-06-25T20:43:55.238Z,6.15
2023-06-25T20:46:23.205Z,5.68
2023-06-25T20:48:52.558Z,5.32
2023-06-25T20:51:20.560Z,5.43
2023-06-25T20:53:48.615Z,5.65
2023-06-25T20:56:16.571Z,5.80
2023-06-25T20:58:44.546Z,5.95
2023-06-25T21:01:12.528Z,6.03
2023-06-25T21:03:40.588Z,5.35
2023-06-25T21:06:09.924Z,5.30
2023-06-25T21:08:37.948Z,5.53
2023-06-25T21:11:05.920Z,5.70
2023-06-25T21:13:33.947Z,5.40
2023-06-25T21:16:01.840Z,5.93
2023-06-25T21:18:29.784Z,5.80
2023-06-25T21:20:59.503Z,6.13
2023-06-25T21:23:29.640Z,5.80
2023-06-25T21:25:57.560Z,5.70
2023-06-25T21:28:25.553Z,5.80
2023-06-25T21:30:53.569Z,5.78
2023-06-25T21:33:21.640Z,6.03
2023-06-25T21:35:49.638Z,5.75
2023-06-25T21:38:22.481Z,5.60
2023-06-25T21:40:52.168Z,6.00
2023-06-25T21:43:20.130Z,5.75
2023-06-25T21:45:48.113Z,5.35
2023-06-25T21:48:16.035Z,5.53
2023-06-25T21:50:44.045Z,5.65
2023-06-25T21:53:12.151Z,5.65
2023-06-25T21:55:40.470Z,5.72
2023-06-25T21:58:09.924Z,5.50
2023-06-25T22:00:38.261Z,5.43
2023-06-25T22:03:06.404Z,6.03
2023-06-25T22:05:34.467Z,5.80
2023-06-25T22:08:02.452Z,5.55
2023-06-25T22:10:30.531Z,5.55
2023-06-25T22:12:58.525Z,5.82
2023-06-25T22:15:27.992Z,5.50
2023-06-25T22:17:58.236Z,5.05
2023-06-25T22:20:28.717Z,5.65
2023-06-25T22:22:56.894Z,5.40
2023-06-25T22:25:24.921Z,5.53
2023-06-25T22:27:53.253Z,6.22
2023-06-25T22:30:21.508Z,6.03
2023-06-25T22:32:51.069Z,5.50
2023-06-25T22:35:19.287Z,5.75
2023-06-25T22:37:47.401Z,6.22
2023-06-25T22:40:15.366Z,5.88
2023-06-25T22:42:43.386Z,5.47
2023-06-25T22:45:11.319Z,5.40
2023-06-25T22:47:40.308Z,5.93
2023-06-25T22:50:11.325Z,5.78
2023-06-25T22:52:40.111Z,5.80
2023-06-25T22:55:08.645Z,5.53
2023-06-25T22:57:36.552Z,5.40
2023-06-25T23:00:07.925Z,5.85
2023-06-25T23:02:35.949Z,6.05
2023-06-25T23:05:04.063Z,6.03
2023-06-25T23:07:33.452Z,5.50
2023-06-25T23:10:01.452Z,5.57
2023-06-25T23:12:29.444Z,5.38
2023-06-25T23:14:57.376Z,6.00
2023-06-25T23:17:25.381Z,6.47
2023-06-25T23:19:54.063Z,5.40
2023-06-25T23:22:22.017Z,5.40
2023-06-25T23:24:51.994Z,5.60
2023-06-25T23:27:20.049Z,5.53
2023-06-25T23:29:48.020Z,5.50
2023-06-25T23:32:15.965Z,5.65
2023-06-25T23:34:46.348Z,5.47
2023-06-25T23:37:14.428Z,5.80
2023-06-25T23:39:42.424Z,6.00
2023-06-25T23:42:11.785Z,5.97
2023-06-25T23:44:39.732Z,5.78
2023-06-25T23:47:07.969Z,5.68
2023-06-25T23:49:35.972Z,5.45
2023-06-25T23:52:04.260Z,5.57
2023-06-25T23:54:33.036Z,5.90
2023-06-25T23:57:01.029Z,5.97
2023-06-25T23:59:30.526Z,6.20
